sensor_id;sensor_type;location;lat;lon;timestamp;P1;durP1;ratioP1;P2;durP2;ratioP2
73642;SDS011;61938;48.652;9.292;2022-09-12T00:02:19;13.35;;;9.00;;
73642;SDS011;61938;48.652;9.292;2022-09-12T00:04:45;16.73;;;8.98;;
73642;SDS011;61938;48.652;9.292;2022-09-12T00:07:11;13.38;;;8.68;;
73642;SDS011;61938;48.652;9.292;2022-09-12T00:09:37;16.33;;;8.85;;
73642;SDS011;61938;48.652;9.292;2022-09-12T00:12:03;12.35;;;7.70;;
73642;SDS011;61938;48.652;9.292;2022-09-12T00:14:29;15.63;;;8.98;;
73642;SDS011;61938;48.652;9.292;2022-09-12T00:16:58;13.38;;;8.65;;
73642;SDS011;61938;48.652;9.292;2022-09-12T00:19:25;12.23;;;8.07;;
73642;SDS011;61938;48.652;9.292;2022-09-12T00:21:51;14.55;;;8.30;;
73642;SDS011;61938;48.652;9.292;2022-09-12T00:24:17;15.68;;;9.20;;
73642;SDS011;61938;48.652;9.292;2022-09-12T00:26:43;15.80;;;8.40;;
73642;SDS011;61938;48.652;9.292;2022-09-12T00:29:12;15.18;;;8.93;;
73642;SDS011;61938;48.652;9.292;2022-09-12T00:31:40;13.95;;;9.35;;
73642;SDS011;61938;48.652;9.292;2022-09-12T00:34:07;12.90;;;8.68;;
73642;SDS011;61938;48.652;9.292;2022-09-12T00:36:33;16.27;;;9.65;;
73642;SDS011;61938;48.652;9.292;2022-09-12T00:38:59;13.65;;;9.10;;
73642;SDS011;61938;48.652;9.292;2022-09-12T00:41:29;15.15;;;8.32;;
73642;SDS011;61938;48.652;9.292;2022-09-12T00:46:29;21.25;;;10.73;;
73642;SDS011;61938;48.652;9.292;2022-09-12T00:49:27;13.95;;;8.27;;
73642;SDS011;61938;48.652;9.292;2022-09-12T00:55:18;22.13;;;9.68;;
73642;SDS011;61938;48.652;9.292;2022-09-12T00:57:25;12.60;;;8.70;;
73642;SDS011;61938;48.652;9.292;2022-09-12T01:00:07;12.80;;;8.30;;
73642;SDS011;61938;48.652;9.292;2022-09-12T01:02:45;11.50;;;7.68;;
73642;SDS011;61938;48.652;9.292;2022-09-12T01:05:19;13.70;;;7.85;;
73642;SDS011;61938;48.652;9.292;2022-09-12T01:07:47;12.80;;;8.18;;
73642;SDS011;61938;48.652;9.292;2022-09-12T01:10:14;15.68;;;8.77;;
73642;SDS011;61938;48.652;9.292;2022-09-12T01:12:41;16.98;;;9.80;;
73642;SDS011;61938;48.652;9.292;2022-09-12T01:15:08;16.20;;;8.50;;
73642;SDS011;61938;48.652;9.292;2022-09-12T01:17:53;11.38;;;7.65;;
73642;SDS011;61938;48.652;9.292;2022-09-12T01:29:08;11.73;;;7.78;;
73642;SDS011;61938;48.652;9.292;2022-09-12T01:34:11;15.00;;;8.82;;
73642;SDS011;61938;48.652;9.292;2022-09-12T01:42:32;13.32;;;7.50;;
73642;SDS011;61938;48.652;9.292;2022-09-12T01:45:10;13.18;;;7.97;;
73642;SDS011;61938;48.652;9.292;2022-09-12T01:47:48;11.98;;;7.03;;
73642;SDS011;61938;48.652;9.292;2022-09-12T01:50:30;12.18;;;7.95;;
73642;SDS011;61938;48.652;9.292;2022-09-12T01:53:08;13.00;;;7.78;;
73642;SDS011;61938;48.652;9.292;2022-09-12T01:58:42;15.00;;;8.18;;
73642;SDS011;61938;48.652;9.292;2022-09-12T02:01:15;14.50;;;8.68;;
73642;SDS011;61938;48.652;9.292;2022-09-12T02:06:30;16.50;;;9.57;;
73642;SDS011;61938;48.652;9.292;2022-09-12T02:09:05;13.25;;;8.55;;
73642;SDS011;61938;48.652;9.292;2022-09-12T02:11:42;14.98;;;8.85;;
73642;SDS011;61938;48.652;9.292;2022-09-12T02:14:20;13.95;;;8.77;;
73642;SDS011;61938;48.652;9.292;2022-09-12T02:16:53;13.57;;;8.63;;
73642;SDS011;61938;48.652;9.292;2022-09-12T02:19:23;13.60;;;8.63;;
73642;SDS011;61938;48.652;9.292;2022-09-12T02:22:01;16.45;;;9.13;;
73642;SDS011;61938;48.652;9.292;2022-09-12T02:24:30;12.43;;;8.27;;
73642;SDS011;61938;48.652;9.292;2022-09-12T02:27:04;13.63;;;8.77;;
73642;SDS011;61938;48.652;9.292;2022-09-12T02:32:11;17.23;;;8.50;;
73642;SDS011;61938;48.652;9.292;2022-09-12T02:39:59;12.00;;;8.07;;
73642;SDS011;61938;48.652;9.292;2022-09-12T02:42:26;17.83;;;9.02;;
73642;SDS011;61938;48.652;9.292;2022-09-12T02:44:52;18.27;;;9.02;;
73642;SDS011;61938;48.652;9.292;2022-09-12T02:47:27;13.18;;;8.18;;
73642;SDS011;61938;48.652;9.292;2022-09-12T02:50:05;20.52;;;8.68;;
73642;SDS011;61938;48.652;9.292;2022-09-12T02:52:32;16.70;;;8.38;;
73642;SDS011;61938;48.652;9.292;2022-09-12T02:55:00;19.33;;;8.82;;
73642;SDS011;61938;48.652;9.292;2022-09-12T02:57:28;12.25;;;8.10;;
73642;SDS011;61938;48.652;9.292;2022-09-12T02:59:56;13.30;;;7.88;;
73642;SDS011;61938;48.652;9.292;2022-09-12T03:02:26;14.35;;;8.63;;
73642;SDS011;61938;48.652;9.292;2022-09-12T03:05:22;18.98;;;8.65;;
73642;SDS011;61938;48.652;9.292;2022-09-12T03:13:32;12.68;;;7.65;;
73642;SDS011;61938;48.652;9.292;2022-09-12T03:16:31;13.10;;;7.45;;
73642;SDS011;61938;48.652;9.292;2022-09-12T03:29:41;14.20;;;8.65;;
73642;SDS011;61938;48.652;9.292;2022-09-12T03:32:09;14.95;;;7.80;;
73642;SDS011;61938;48.652;9.292;2022-09-12T03:34:35;12.60;;;8.15;;
73642;SDS011;61938;48.652;9.292;2022-09-12T03:37:01;17.23;;;9.40;;
73642;SDS011;61938;48.652;9.292;2022-09-12T03:39:27;20.50;;;9.73;;
73642;SDS011;61938;48.652;9.292;2022-09-12T03:41:53;14.77;;;8.52;;
73642;SDS011;61938;48.652;9.292;2022-09-12T03:44:19;12.95;;;7.95;;
73642;SDS011;61938;48.652;9.292;2022-09-12T03:46:45;13.25;;;7.68;;
73642;SDS011;61938;48.652;9.292;2022-09-12T03:49:11;20.90;;;8.60;;
73642;SDS011;61938;48.652;9.292;2022-09-12T03:51:37;16.17;;;8.02;;
73642;SDS011;61938;48.652;9.292;2022-09-12T03:54:04;13.27;;;8.57;;
73642;SDS011;61938;48.652;9.292;2022-09-12T03:56:30;13.85;;;7.70;;
73642;SDS011;61938;48.652;9.292;2022-09-12T03:58:56;13.18;;;8.00;;
73642;SDS011;61938;48.652;9.292;2022-09-12T04:01:22;13.52;;;8.50;;
73642;SDS011;61938;48.652;9.292;2022-09-12T04:03:49;15.30;;;7.53;;
73642;SDS011;61938;48.652;9.292;2022-09-12T04:06:17;18.73;;;8.13;;
73642;SDS011;61938;48.652;9.292;2022-09-12T04:08:47;15.43;;;8.48;;
73642;SDS011;61938;48.652;9.292;2022-09-12T04:11:14;15.13;;;8.88;;
73642;SDS011;61938;48.652;9.292;2022-09-12T04:13:42;14.13;;;8.05;;
73642;SDS011;61938;48.652;9.292;2022-09-12T04:16:09;17.25;;;8.20;;
73642;SDS011;61938;48.652;9.292;2022-09-12T04:18:36;13.68;;;6.65;;
73642;SDS011;61938;48.652;9.292;2022-09-12T04:21:03;10.05;;;6.45;;
73642;SDS011;61938;48.652;9.292;2022-09-12T04:23:30;10.95;;;5.95;;
73642;SDS011;61938;48.652;9.292;2022-09-12T04:25:56;12.27;;;6.82;;
73642;SDS011;61938;48.652;9.292;2022-09-12T04:28:23;10.55;;;6.45;;
73642;SDS011;61938;48.652;9.292;2022-09-12T04:30:50;10.35;;;6.18;;
73642;SDS011;61938;48.652;9.292;2022-09-12T04:33:16;11.15;;;6.80;;
73642;SDS011;61938;48.652;9.292;2022-09-12T04:35:42;10.95;;;6.95;;
73642;SDS011;61938;48.652;9.292;2022-09-12T04:38:09;18.90;;;8.15;;
73642;SDS011;61938;48.652;9.292;2022-09-12T04:40:35;10.50;;;6.82;;
73642;SDS011;61938;48.652;9.292;2022-09-12T04:43:00;54.67;;;8.07;;
73642;SDS011;61938;48.652;9.292;2022-09-12T04:45:26;41.95;;;7.70;;
73642;SDS011;61938;48.652;9.292;2022-09-12T04:47:52;33.85;;;7.22;;
73642;SDS011;61938;48.652;9.292;2022-09-12T04:50:17;26.08;;;6.70;;
73642;SDS011;61938;48.652;9.292;2022-09-12T04:52:48;29.27;;;7.78;;
73642;SDS011;61938;48.652;9.292;2022-09-12T04:55:14;50.27;;;7.13;;
73642;SDS011;61938;48.652;9.292;2022-09-12T04:57:40;46.33;;;8.65;;
73642;SDS011;61938;48.652;9.292;2022-09-12T05:00:06;79.93;;;9.48;;
73642;SDS011;61938;48.652;9.292;2022-09-12T05:02:33;46.22;;;8.20;;
73642;SDS011;61938;48.652;9.292;2022-09-12T05:04:59;61.15;;;8.85;;
73642;SDS011;61938;48.652;9.292;2022-09-12T05:07:24;11.68;;;7.05;;
73642;SDS011;61938;48.652;9.292;2022-09-12T05:09:50;42.15;;;7.10;;
73642;SDS011;61938;48.652;9.292;2022-09-12T05:12:16;32.47;;;7.93;;
73642;SDS011;61938;48.652;9.292;2022-09-12T05:14:41;126.15;;;8.68;;
73642;SDS011;61938;48.652;9.292;2022-09-12T05:17:07;42.72;;;7.53;;
73642;SDS011;61938;48.652;9.292;2022-09-12T05:19:33;15.55;;;6.35;;
73642;SDS011;61938;48.652;9.292;2022-09-12T05:21:59;23.63;;;6.57;;
73642;SDS011;61938;48.652;9.292;2022-09-12T05:24:25;18.55;;;6.18;;
73642;SDS011;61938;48.652;9.292;2022-09-12T05:26:50;10.57;;;6.05;;
73642;SDS011;61938;48.652;9.292;2022-09-12T05:29:16;9.80;;;5.95;;
73642;SDS011;61938;48.652;9.292;2022-09-12T05:31:42;18.77;;;6.18;;
73642;SDS011;61938;48.652;9.292;2022-09-12T05:34:08;19.98;;;6.18;;
73642;SDS011;61938;48.652;9.292;2022-09-12T05:36:35;21.80;;;5.93;;
73642;SDS011;61938;48.652;9.292;2022-09-12T05:39:02;29.42;;;5.40;;
73642;SDS011;61938;48.652;9.292;2022-09-12T05:41:29;11.20;;;5.55;;
73642;SDS011;61938;48.652;9.292;2022-09-12T05:43:58;34.15;;;6.35;;
73642;SDS011;61938;48.652;9.292;2022-09-12T05:46:26;158.25;;;8.25;;
73642;SDS011;61938;48.652;9.292;2022-09-12T05:48:54;180.65;;;9.02;;
73642;SDS011;61938;48.652;9.292;2022-09-12T05:51:24;194.45;;;10.25;;
73642;SDS011;61938;48.652;9.292;2022-09-12T05:53:52;144.02;;;7.47;;
73642;SDS011;61938;48.652;9.292;2022-09-12T05:56:20;157.57;;;9.70;;
73642;SDS011;61938;48.652;9.292;2022-09-12T05:58:51;384.02;;;15.25;;
73642;SDS011;61938;48.652;9.292;2022-09-12T06:01:18;239.00;;;11.82;;
73642;SDS011;61938;48.652;9.292;2022-09-12T06:03:45;231.35;;;12.40;;
73642;SDS011;61938;48.652;9.292;2022-09-12T06:06:16;231.18;;;10.82;;
73642;SDS011;61938;48.652;9.292;2022-09-12T06:08:47;269.98;;;13.60;;
73642;SDS011;61938;48.652;9.292;2022-09-12T06:11:15;340.35;;;12.18;;
73642;SDS011;61938;48.652;9.292;2022-09-12T06:13:43;304.35;;;12.85;;
73642;SDS011;61938;48.652;9.292;2022-09-12T06:16:13;146.27;;;8.02;;
73642;SDS011;61938;48.652;9.292;2022-09-12T06:18:45;201.48;;;13.18;;
73642;SDS011;61938;48.652;9.292;2022-09-12T06:21:16;154.63;;;8.85;;
73642;SDS011;61938;48.652;9.292;2022-09-12T06:23:42;171.23;;;11.35;;
73642;SDS011;61938;48.652;9.292;2022-09-12T06:26:10;272.95;;;13.10;;
73642;SDS011;61938;48.652;9.292;2022-09-12T06:28:40;130.40;;;9.15;;
73642;SDS011;61938;48.652;9.292;2022-09-12T06:31:08;177.52;;;10.75;;
73642;SDS011;61938;48.652;9.292;2022-09-12T06:33:43;29.42;;;6.15;;
73642;SDS011;61938;48.652;9.292;2022-09-12T06:36:15;200.80;;;13.27;;
73642;SDS011;61938;48.652;9.292;2022-09-12T06:38:46;130.88;;;9.00;;
73642;SDS011;61938;48.652;9.292;2022-09-12T06:41:15;190.68;;;11.40;;
73642;SDS011;61938;48.652;9.292;2022-09-12T06:43:41;150.93;;;9.82;;
73642;SDS011;61938;48.652;9.292;2022-09-12T06:46:07;177.85;;;10.27;;
73642;SDS011;61938;48.652;9.292;2022-09-12T06:48:34;184.05;;;9.63;;
73642;SDS011;61938;48.652;9.292;2022-09-12T06:51:04;131.23;;;9.40;;
73642;SDS011;61938;48.652;9.292;2022-09-12T06:53:32;47.65;;;7.22;;
73642;SDS011;61938;48.652;9.292;2022-09-12T06:55:59;219.52;;;11.25;;
73642;SDS011;61938;48.652;9.292;2022-09-12T06:58:26;87.72;;;8.07;;
73642;SDS011;61938;48.652;9.292;2022-09-12T07:00:59;100.95;;;8.55;;
73642;SDS011;61938;48.652;9.292;2022-09-12T07:03:27;132.43;;;9.35;;
73642;SDS011;61938;48.652;9.292;2022-09-12T07:05:53;163.60;;;10.25;;
73642;SDS011;61938;48.652;9.292;2022-09-12T07:08:19;176.13;;;11.95;;
73642;SDS011;61938;48.652;9.292;2022-09-12T07:10:45;69.15;;;8.65;;
73642;SDS011;61938;48.652;9.292;2022-09-12T07:13:11;110.05;;;10.68;;
73642;SDS011;61938;48.652;9.292;2022-09-12T07:15:37;44.40;;;8.93;;
73642;SDS011;61938;48.652;9.292;2022-09-12T07:18:04;28.02;;;8.25;;
73642;SDS011;61938;48.652;9.292;2022-09-12T07:20:30;19.83;;;8.18;;
73642;SDS011;61938;48.652;9.292;2022-09-12T07:22:57;19.10;;;8.55;;
73642;SDS011;61938;48.652;9.292;2022-09-12T07:25:23;17.08;;;8.82;;
73642;SDS011;61938;48.652;9.292;2022-09-12T07:27:51;15.38;;;9.18;;
73642;SDS011;61938;48.652;9.292;2022-09-12T07:30:17;17.35;;;7.97;;
73642;SDS011;61938;48.652;9.292;2022-09-12T07:32:43;18.02;;;9.13;;
73642;SDS011;61938;48.652;9.292;2022-09-12T07:35:08;12.35;;;8.15;;
73642;SDS011;61938;48.652;9.292;2022-09-12T07:37:34;14.55;;;8.68;;
73642;SDS011;61938;48.652;9.292;2022-09-12T07:40:00;16.95;;;8.43;;
73642;SDS011;61938;48.652;9.292;2022-09-12T07:42:26;12.52;;;8.35;;
73642;SDS011;61938;48.652;9.292;2022-09-12T07:44:52;13.60;;;8.13;;
73642;SDS011;61938;48.652;9.292;2022-09-12T07:47:18;13.73;;;8.88;;
73642;SDS011;61938;48.652;9.292;2022-09-12T07:49:44;15.43;;;9.55;;
73642;SDS011;61938;48.652;9.292;2022-09-12T07:52:09;17.77;;;9.80;;
73642;SDS011;61938;48.652;9.292;2022-09-12T07:54:35;16.90;;;8.98;;
73642;SDS011;61938;48.652;9.292;2022-09-12T07:57:01;14.52;;;9.68;;
73642;SDS011;61938;48.652;9.292;2022-09-12T07:59:27;14.55;;;9.20;;
73642;SDS011;61938;48.652;9.292;2022-09-12T08:01:53;14.52;;;9.65;;
73642;SDS011;61938;48.652;9.292;2022-09-12T08:04:19;13.48;;;9.40;;
73642;SDS011;61938;48.652;9.292;2022-09-12T08:06:45;13.57;;;9.35;;
73642;SDS011;61938;48.652;9.292;2022-09-12T08:09:10;12.70;;;8.98;;
73642;SDS011;61938;48.652;9.292;2022-09-12T08:11:37;17.15;;;10.32;;
73642;SDS011;61938;48.652;9.292;2022-09-12T08:14:02;14.52;;;9.20;;
73642;SDS011;61938;48.652;9.292;2022-09-12T08:16:30;16.80;;;8.88;;
73642;SDS011;61938;48.652;9.292;2022-09-12T08:18:56;11.98;;;8.52;;
73642;SDS011;61938;48.652;9.292;2022-09-12T08:21:25;14.60;;;8.35;;
73642;SDS011;61938;48.652;9.292;2022-09-12T08:23:54;17.83;;;7.78;;
73642;SDS011;61938;48.652;9.292;2022-09-12T08:26:21;12.43;;;7.25;;
73642;SDS011;61938;48.652;9.292;2022-09-12T08:28:48;11.68;;;7.50;;
73642;SDS011;61938;48.652;9.292;2022-09-12T08:31:15;14.85;;;6.90;;
73642;SDS011;61938;48.652;9.292;2022-09-12T08:33:43;11.23;;;7.32;;
73642;SDS011;61938;48.652;9.292;2022-09-12T08:36:10;18.65;;;7.07;;
73642;SDS011;61938;48.652;9.292;2022-09-12T08:38:38;9.75;;;6.35;;
73642;SDS011;61938;48.652;9.292;2022-09-12T08:44:02;6.78;;;5.20;;
73642;SDS011;61938;48.652;9.292;2022-09-12T08:46:49;7.18;;;5.53;;
73642;SDS011;61938;48.652;9.292;2022-09-12T08:49:50;7.45;;;4.68;;
73642;SDS011;61938;48.652;9.292;2022-09-12T08:57:58;9.70;;;5.25;;
73642;SDS011;61938;48.652;9.292;2022-09-12T09:00:28;6.45;;;4.70;;
73642;SDS011;61938;48.652;9.292;2022-09-12T09:08:39;11.07;;;4.30;;
73642;SDS011;61938;48.652;9.292;2022-09-12T09:13:54;6.82;;;4.57;;
73642;SDS011;61938;48.652;9.292;2022-09-12T09:17:02;7.55;;;4.90;;
73642;SDS011;61938;48.652;9.292;2022-09-12T09:19:36;5.90;;;4.15;;
73642;SDS011;61938;48.652;9.292;2022-09-12T09:22:09;7.38;;;3.83;;
73642;SDS011;61938;48.652;9.292;2022-09-12T09:24:44;7.25;;;4.30;;
73642;SDS011;61938;48.652;9.292;2022-09-12T09:29:55;4.50;;;3.72;;
73642;SDS011;61938;48.652;9.292;2022-09-12T09:34:57;4.28;;;3.30;;
73642;SDS011;61938;48.652;9.292;2022-09-12T09:40:26;7.32;;;2.92;;
73642;SDS011;61938;48.652;9.292;2022-09-12T09:43:19;6.60;;;3.13;;
73642;SDS011;61938;48.652;9.292;2022-09-12T09:45:47;4.88;;;3.45;;
73642;SDS011;61938;48.652;9.292;2022-09-12T09:48:21;4.20;;;3.42;;
73642;SDS011;61938;48.652;9.292;2022-09-12T09:50:51;6.47;;;3.72;;
73642;SDS011;61938;48.652;9.292;2022-09-12T09:55:43;3.67;;;2.95;;
73642;SDS011;61938;48.652;9.292;2022-09-12T09:58:09;3.75;;;3.17;;
73642;SDS011;61938;48.652;9.292;2022-09-12T10:00:36;6.18;;;3.13;;
73642;SDS011;61938;48.652;9.292;2022-09-12T10:03:17;3.83;;;3.10;;
73642;SDS011;61938;48.652;9.292;2022-09-12T10:05:53;10.88;;;3.70;;
73642;SDS011;61938;48.652;9.292;2022-09-12T10:08:40;4.53;;;3.28;;
73642;SDS011;61938;48.652;9.292;2022-09-12T10:11:17;11.80;;;3.90;;
73642;SDS011;61938;48.652;9.292;2022-09-12T10:13:52;3.70;;;2.78;;
73642;SDS011;61938;48.652;9.292;2022-09-12T10:16:22;4.20;;;3.22;;
73642;SDS011;61938;48.652;9.292;2022-09-12T10:19:12;6.07;;;3.15;;
73642;SDS011;61938;48.652;9.292;2022-09-12T10:21:51;3.75;;;2.80;;
73642;SDS011;61938;48.652;9.292;2022-09-12T10:26:52;3.97;;;2.92;;
73642;SDS011;61938;48.652;9.292;2022-09-12T10:29:30;3.25;;;2.65;;
73642;SDS011;61938;48.652;9.292;2022-09-12T10:32:02;4.03;;;2.58;;
73642;SDS011;61938;48.652;9.292;2022-09-12T10:34:35;3.95;;;2.63;;
73642;SDS011;61938;48.652;9.292;2022-09-12T10:37:04;3.78;;;2.67;;
73642;SDS011;61938;48.652;9.292;2022-09-12T10:39:31;6.03;;;2.60;;
73642;SDS011;61938;48.652;9.292;2022-09-12T10:42:00;3.17;;;2.50;;
73642;SDS011;61938;48.652;9.292;2022-09-12T10:44:28;7.38;;;2.40;;
73642;SDS011;61938;48.652;9.292;2022-09-12T10:46:55;5.22;;;2.58;;
73642;SDS011;61938;48.652;9.292;2022-09-12T10:49:29;3.00;;;2.30;;
73642;SDS011;61938;48.652;9.292;2022-09-12T10:55:04;2.42;;;2.20;;
73642;SDS011;61938;48.652;9.292;2022-09-12T11:00:46;3.92;;;2.58;;
73642;SDS011;61938;48.652;9.292;2022-09-12T11:03:21;3.08;;;2.60;;
73642;SDS011;61938;48.652;9.292;2022-09-12T11:06:00;4.68;;;2.30;;
73642;SDS011;61938;48.652;9.292;2022-09-12T11:14:37;3.83;;;2.30;;
73642;SDS011;61938;48.652;9.292;2022-09-12T11:16:55;4.50;;;2.40;;
73642;SDS011;61938;48.652;9.292;2022-09-12T11:19:42;5.03;;;2.42;;
73642;SDS011;61938;48.652;9.292;2022-09-12T11:25:22;7.43;;;2.60;;
73642;SDS011;61938;48.652;9.292;2022-09-12T11:30:24;3.10;;;2.53;;
73642;SDS011;61938;48.652;9.292;2022-09-12T11:35:44;2.03;;;1.70;;
73642;SDS011;61938;48.652;9.292;2022-09-12T11:41:16;5.45;;;2.00;;
73642;SDS011;61938;48.652;9.292;2022-09-12T11:46:39;2.63;;;2.00;;
73642;SDS011;61938;48.652;9.292;2022-09-12T11:54:11;2.28;;;1.70;;
73642;SDS011;61938;48.652;9.292;2022-09-12T11:56:45;2.05;;;1.73;;
73642;SDS011;61938;48.652;9.292;2022-09-12T11:59:14;2.45;;;1.58;;
73642;SDS011;61938;48.652;9.292;2022-09-12T12:01:57;3.22;;;1.35;;
73642;SDS011;61938;48.652;9.292;2022-09-12T12:04:26;2.10;;;1.38;;
73642;SDS011;61938;48.652;9.292;2022-09-12T12:07:06;1.45;;;1.35;;
73642;SDS011;61938;48.652;9.292;2022-09-12T12:09:35;2.42;;;1.60;;
73642;SDS011;61938;48.652;9.292;2022-09-12T12:12:10;2.05;;;1.55;;
73642;SDS011;61938;48.652;9.292;2022-09-12T12:14:42;4.18;;;1.73;;
73642;SDS011;61938;48.652;9.292;2022-09-12T12:17:21;1.17;;;0.80;;
73642;SDS011;61938;48.652;9.292;2022-09-12T12:20:01;2.40;;;1.08;;
73642;SDS011;61938;48.652;9.292;2022-09-12T12:22:28;2.55;;;1.30;;
73642;SDS011;61938;48.652;9.292;2022-09-12T12:25:05;1.83;;;1.30;;
73642;SDS011;61938;48.652;9.292;2022-09-12T12:38:04;0.90;;;0.77;;
73642;SDS011;61938;48.652;9.292;2022-09-12T12:43:41;1.88;;;1.00;;
73642;SDS011;61938;48.652;9.292;2022-09-12T12:46:09;1.13;;;0.90;;
73642;SDS011;61938;48.652;9.292;2022-09-12T12:48:45;2.47;;;1.30;;
73642;SDS011;61938;48.652;9.292;2022-09-12T12:53:50;1.92;;;1.42;;
73642;SDS011;61938;48.652;9.292;2022-09-12T12:56:27;3.30;;;1.73;;
73642;SDS011;61938;48.652;9.292;2022-09-12T12:59:03;2.70;;;1.75;;
73642;SDS011;61938;48.652;9.292;2022-09-12T13:01:37;2.60;;;1.48;;
73642;SDS011;61938;48.652;9.292;2022-09-12T13:04:14;2.55;;;1.70;;
73642;SDS011;61938;48.652;9.292;2022-09-12T13:06:53;2.50;;;1.60;;
73642;SDS011;61938;48.652;9.292;2022-09-12T13:09:46;1.50;;;1.40;;
73642;SDS011;61938;48.652;9.292;2022-09-12T13:12:18;1.93;;;1.53;;
73642;SDS011;61938;48.652;9.292;2022-09-12T13:14:51;1.77;;;1.48;;
73642;SDS011;61938;48.652;9.292;2022-09-12T13:17:24;4.85;;;1.65;;
73642;SDS011;61938;48.652;9.292;2022-09-12T13:19:54;2.47;;;1.90;;
73642;SDS011;61938;48.652;9.292;2022-09-12T13:22:46;3.03;;;1.77;;
73642;SDS011;61938;48.652;9.292;2022-09-12T13:25:29;3.45;;;1.70;;
73642;SDS011;61938;48.652;9.292;2022-09-12T13:30:25;2.75;;;1.70;;
73642;SDS011;61938;48.652;9.292;2022-09-12T13:33:00;2.95;;;1.55;;
73642;SDS011;61938;48.652;9.292;2022-09-12T13:41:24;3.50;;;1.75;;
73642;SDS011;61938;48.652;9.292;2022-09-12T13:44:14;1.60;;;1.42;;
73642;SDS011;61938;48.652;9.292;2022-09-12T13:46:42;1.88;;;1.50;;
73642;SDS011;61938;48.652;9.292;2022-09-12T13:49:54;2.33;;;1.50;;
73642;SDS011;61938;48.652;9.292;2022-09-12T13:54:50;1.70;;;1.60;;
73642;SDS011;61938;48.652;9.292;2022-09-12T13:57:28;7.95;;;1.90;;
73642;SDS011;61938;48.652;9.292;2022-09-12T13:59:59;2.13;;;1.80;;
73642;SDS011;61938;48.652;9.292;2022-09-12T14:02:38;4.30;;;1.65;;
73642;SDS011;61938;48.652;9.292;2022-09-12T14:05:11;2.28;;;1.70;;
73642;SDS011;61938;48.652;9.292;2022-09-12T14:10:26;2.03;;;1.65;;
73642;SDS011;61938;48.652;9.292;2022-09-12T14:12:57;2.00;;;1.60;;
73642;SDS011;61938;48.652;9.292;2022-09-12T14:15:27;2.35;;;1.85;;
73642;SDS011;61938;48.652;9.292;2022-09-12T14:17:57;2.53;;;1.85;;
73642;SDS011;61938;48.652;9.292;2022-09-12T14:20:26;2.80;;;1.70;;
73642;SDS011;61938;48.652;9.292;2022-09-12T14:23:00;3.42;;;1.95;;
73642;SDS011;61938;48.652;9.292;2022-09-12T14:25:30;4.90;;;1.75;;
73642;SDS011;61938;48.652;9.292;2022-09-12T14:28:01;3.20;;;1.88;;
73642;SDS011;61938;48.652;9.292;2022-09-12T14:30:28;3.85;;;1.52;;
73642;SDS011;61938;48.652;9.292;2022-09-12T14:35:45;3.63;;;1.52;;
73642;SDS011;61938;48.652;9.292;2022-09-12T14:40:42;4.18;;;1.25;;
73642;SDS011;61938;48.652;9.292;2022-09-12T14:43:28;2.67;;;1.60;;
73642;SDS011;61938;48.652;9.292;2022-09-12T14:46:17;2.47;;;1.40;;
73642;SDS011;61938;48.652;9.292;2022-09-12T14:51:36;1.58;;;1.42;;
73642;SDS011;61938;48.652;9.292;2022-09-12T14:54:04;2.80;;;1.60;;
73642;SDS011;61938;48.652;9.292;2022-09-12T14:56:37;1.77;;;1.30;;
73642;SDS011;61938;48.652;9.292;2022-09-12T15:04:47;1.90;;;1.40;;
73642;SDS011;61938;48.652;9.292;2022-09-12T15:07:44;2.17;;;1.50;;
73642;SDS011;61938;48.652;9.292;2022-09-12T15:12:49;1.77;;;1.30;;
73642;SDS011;61938;48.652;9.292;2022-09-12T15:15:28;1.50;;;1.40;;
73642;SDS011;61938;48.652;9.292;2022-09-12T15:17:54;1.88;;;1.52;;
73642;SDS011;61938;48.652;9.292;2022-09-12T15:20:20;1.85;;;1.40;;
73642;SDS011;61938;48.652;9.292;2022-09-12T15:22:46;1.70;;;1.25;;
73642;SDS011;61938;48.652;9.292;2022-09-12T15:25:12;1.58;;;1.13;;
73642;SDS011;61938;48.652;9.292;2022-09-12T15:27:38;6.43;;;1.27;;
73642;SDS011;61938;48.652;9.292;2022-09-12T15:30:07;4.82;;;1.10;;
73642;SDS011;61938;48.652;9.292;2022-09-12T15:32:34;2.33;;;1.40;;
73642;SDS011;61938;48.652;9.292;2022-09-12T15:35:01;1.48;;;1.20;;
73642;SDS011;61938;48.652;9.292;2022-09-12T15:37:26;1.00;;;0.85;;
73642;SDS011;61938;48.652;9.292;2022-09-12T15:39:53;1.42;;;1.08;;
73642;SDS011;61938;48.652;9.292;2022-09-12T15:42:23;1.13;;;1.00;;
73642;SDS011;61938;48.652;9.292;2022-09-12T15:44:52;4.15;;;1.48;;
73642;SDS011;61938;48.652;9.292;2022-09-12T15:47:18;1.90;;;1.48;;
73642;SDS011;61938;48.652;9.292;2022-09-12T15:49:44;2.17;;;1.45;;
73642;SDS011;61938;48.652;9.292;2022-09-12T15:52:13;1.92;;;1.30;;
73642;SDS011;61938;48.652;9.292;2022-09-12T15:54:40;2.60;;;1.30;;
73642;SDS011;61938;48.652;9.292;2022-09-12T15:57:06;2.33;;;1.50;;
73642;SDS011;61938;48.652;9.292;2022-09-12T15:59:32;2.40;;;1.38;;
73642;SDS011;61938;48.652;9.292;2022-09-12T16:01:58;1.73;;;1.20;;
73642;SDS011;61938;48.652;9.292;2022-09-12T16:04:24;1.88;;;1.10;;
73642;SDS011;61938;48.652;9.292;2022-09-12T16:06:52;2.33;;;1.20;;
73642;SDS011;61938;48.652;9.292;2022-09-12T16:09:19;1.85;;;1.20;;
73642;SDS011;61938;48.652;9.292;2022-09-12T16:11:45;1.33;;;0.80;;
73642;SDS011;61938;48.652;9.292;2022-09-12T16:14:15;1.60;;;1.17;;
73642;SDS011;61938;48.652;9.292;2022-09-12T16:16:42;2.97;;;1.48;;
73642;SDS011;61938;48.652;9.292;2022-09-12T16:19:15;2.40;;;1.38;;
73642;SDS011;61938;48.652;9.292;2022-09-12T16:21:41;1.63;;;1.25;;
73642;SDS011;61938;48.652;9.292;2022-09-12T16:24:07;2.80;;;1.50;;
73642;SDS011;61938;48.652;9.292;2022-09-12T16:26:32;1.45;;;1.17;;
73642;SDS011;61938;48.652;9.292;2022-09-12T16:28:58;1.80;;;1.30;;
73642;SDS011;61938;48.652;9.292;2022-09-12T16:31:24;1.20;;;1.10;;
73642;SDS011;61938;48.652;9.292;2022-09-12T16:33:51;1.80;;;1.23;;
73642;SDS011;61938;48.652;9.292;2022-09-12T16:36:18;1.90;;;1.40;;
73642;SDS011;61938;48.652;9.292;2022-09-12T16:38:46;2.63;;;2.08;;
73642;SDS011;61938;48.652;9.292;2022-09-12T16:41:16;1.77;;;1.58;;
73642;SDS011;61938;48.652;9.292;2022-09-12T16:43:44;2.20;;;1.48;;
73642;SDS011;61938;48.652;9.292;2022-09-12T16:46:12;2.15;;;1.52;;
73642;SDS011;61938;48.652;9.292;2022-09-12T16:48:47;1.55;;;1.27;;
73642;SDS011;61938;48.652;9.292;2022-09-12T16:51:14;1.55;;;1.33;;
73642;SDS011;61938;48.652;9.292;2022-09-12T16:53:41;3.13;;;1.42;;
73642;SDS011;61938;48.652;9.292;2022-09-12T16:56:07;4.00;;;1.20;;
73642;SDS011;61938;48.652;9.292;2022-09-12T16:58:34;1.83;;;1.40;;
73642;SDS011;61938;48.652;9.292;2022-09-12T17:01:05;2.67;;;1.52;;
73642;SDS011;61938;48.652;9.292;2022-09-12T17:03:32;1.15;;;1.02;;
73642;SDS011;61938;48.652;9.292;2022-09-12T17:06:03;3.22;;;1.15;;
73642;SDS011;61938;48.652;9.292;2022-09-12T17:08:32;1.73;;;1.33;;
73642;SDS011;61938;48.652;9.292;2022-09-12T17:11:03;2.70;;;1.80;;
73642;SDS011;61938;48.652;9.292;2022-09-12T17:13:31;2.30;;;1.70;;
73642;SDS011;61938;48.652;9.292;2022-09-12T17:15:57;8.07;;;1.60;;
73642;SDS011;61938;48.652;9.292;2022-09-12T17:18:23;1.50;;;1.10;;
73642;SDS011;61938;48.652;9.292;2022-09-12T17:20:49;1.77;;;1.50;;
73642;SDS011;61938;48.652;9.292;2022-09-12T17:23:15;1.92;;;1.20;;
73642;SDS011;61938;48.652;9.292;2022-09-12T17:25:45;1.67;;;1.33;;
73642;SDS011;61938;48.652;9.292;2022-09-12T17:28:12;7.18;;;1.95;;
73642;SDS011;61938;48.652;9.292;2022-09-12T17:30:38;2.13;;;1.40;;
73642;SDS011;61938;48.652;9.292;2022-09-12T17:33:05;1.70;;;1.42;;
73642;SDS011;61938;48.652;9.292;2022-09-12T17:35:34;2.65;;;1.30;;
73642;SDS011;61938;48.652;9.292;2022-09-12T17:38:01;4.05;;;1.77;;